Airfield :
LOGIN :

Register | Disclaimer

   EN    FR    IT 

 










Legend :    VFR   Marginal VFR   IFR   Intensive IFR   Very Intensive IFR
Visi :
Ceiling :
>= 8 km
>= 3000ft
5 to 8 km
1000 to 3000 ft
1500m to 5 km
500 to 1000 ft
800 to 1500m
200 to 500 ft
< 800m
< 200 ft
Symbols :   Thunderstorms  Fog  Heavy snow  Heavy precipitations  Wind > 20 kt
SIGMETs :     Misc.  Thunderstorms  Icing  Turbulence  Mountain Waves  Volcanic Ashes






- Airport Elevation : 236 ft
- IATA code : MMX


ESMS - Malmö Sturup

CURRENT METAR :
  • 200620Z 29010KT 6000 BR BKN007 OVC009 15/13 Q1016

EXPIRED METARs :
  • 200550Z 27009KT 4500 BR OVC007 14/13 Q1016
  • 200520Z 26007KT 3700 BR FEW008 BKN010 BKN022 14/14 Q1016
  • 200450Z 26009KT 4000 BR FEW011 BKN017 14/13 Q1015
  • 200420Z 25006KT 4300 BR SCT025 BKN055 14/13 Q1015
  • 200350Z 27004KT 2100 BR SCT053 13/13 Q1015

TAF TAF ESMS
Valid from the 20 at 06:00 until the 21 at 06:00 UTC


200505Z 2006/2106 24005KT 4000 BR SCT025
TEMPO 2006/2007 6000 NSW BKN005
BECMG 2007/2009 30010KT
TEMPO 2103/2106 RA BKN012



MET'MAP, your aeronautical weather chart ! - Copyright ORBIFLY December 2007 - Disclaimer

ORBIFLY MET'MAP TEAM :

Programming & Development : Alexandra Zaïnal
Original concept : Baudouin d'Aumeries
Technical & hardware support : Manuel Goepfert
Assistance : Marc-Olivier Méhu

Contact : metmap@orbifly.com




SOURCES & CREDITS :

   NOAA